sensor_id;sensor_type;location;lat;lon;timestamp;P1;durP1;ratioP1;P2;durP2;ratioP2
38591;SDS011;24356;48.460;11.450;2023-02-11T00:01:04;69.60;;;28.35;;
38591;SDS011;24356;48.460;11.450;2023-02-11T00:03:43;77.05;;;27.27;;
38591;SDS011;24356;48.460;11.450;2023-02-11T00:06:09;74.10;;;27.45;;
38591;SDS011;24356;48.460;11.450;2023-02-11T00:08:35;77.57;;;27.25;;
38591;SDS011;24356;48.460;11.450;2023-02-11T00:11:02;72.30;;;27.98;;
38591;SDS011;24356;48.460;11.450;2023-02-11T00:13:28;69.68;;;27.75;;
38591;SDS011;24356;48.460;11.450;2023-02-11T00:15:55;75.30;;;27.42;;
38591;SDS011;24356;48.460;11.450;2023-02-11T00:18:21;78.93;;;29.58;;
38591;SDS011;24356;48.460;11.450;2023-02-11T00:20:47;76.40;;;28.25;;
38591;SDS011;24356;48.460;11.450;2023-02-11T00:23:13;70.38;;;27.02;;
38591;SDS011;24356;48.460;11.450;2023-02-11T00:25:42;70.80;;;27.58;;
38591;SDS011;24356;48.460;11.450;2023-02-11T00:28:09;73.72;;;27.83;;
38591;SDS011;24356;48.460;11.450;2023-02-11T00:30:35;75.10;;;27.60;;
38591;SDS011;24356;48.460;11.450;2023-02-11T00:33:04;76.60;;;29.00;;
38591;SDS011;24356;48.460;11.450;2023-02-11T00:35:29;84.50;;;28.80;;
38591;SDS011;24356;48.460;11.450;2023-02-11T00:37:55;86.10;;;29.15;;
38591;SDS011;24356;48.460;11.450;2023-02-11T00:40:21;82.03;;;29.05;;
38591;SDS011;24356;48.460;11.450;2023-02-11T00:42:46;75.85;;;28.80;;
38591;SDS011;24356;48.460;11.450;2023-02-11T00:45:12;71.50;;;26.98;;
38591;SDS011;24356;48.460;11.450;2023-02-11T00:47:38;81.35;;;27.95;;
38591;SDS011;24356;48.460;11.450;2023-02-11T00:50:04;78.22;;;28.08;;
38591;SDS011;24356;48.460;11.450;2023-02-11T00:52:31;68.72;;;28.08;;
38591;SDS011;24356;48.460;11.450;2023-02-11T00:54:56;71.65;;;27.63;;
38591;SDS011;24356;48.460;11.450;2023-02-11T00:57:22;69.30;;;27.20;;
38591;SDS011;24356;48.460;11.450;2023-02-11T00:59:48;73.75;;;26.60;;
38591;SDS011;24356;48.460;11.450;2023-02-11T01:02:15;77.30;;;28.13;;
38591;SDS011;24356;48.460;11.450;2023-02-11T01:04:41;74.78;;;26.40;;
38591;SDS011;24356;48.460;11.450;2023-02-11T01:07:07;70.85;;;27.27;;
38591;SDS011;24356;48.460;11.450;2023-02-11T01:09:33;77.72;;;29.27;;
38591;SDS011;24356;48.460;11.450;2023-02-11T01:12:01;76.63;;;29.85;;
38591;SDS011;24356;48.460;11.450;2023-02-11T01:14:27;78.78;;;27.67;;
38591;SDS011;24356;48.460;11.450;2023-02-11T01:16:52;79.78;;;29.73;;
38591;SDS011;24356;48.460;11.450;2023-02-11T01:19:18;77.63;;;27.35;;
38591;SDS011;24356;48.460;11.450;2023-02-11T01:21:43;75.93;;;28.58;;
38591;SDS011;24356;48.460;11.450;2023-02-11T01:24:09;77.22;;;29.15;;
38591;SDS011;24356;48.460;11.450;2023-02-11T01:26:34;84.15;;;29.90;;
38591;SDS011;24356;48.460;11.450;2023-02-11T01:29:00;75.45;;;29.55;;
38591;SDS011;24356;48.460;11.450;2023-02-11T01:31:25;77.25;;;29.73;;
38591;SDS011;24356;48.460;11.450;2023-02-11T01:33:51;83.55;;;29.48;;
38591;SDS011;24356;48.460;11.450;2023-02-11T01:36:17;82.20;;;29.98;;
38591;SDS011;24356;48.460;11.450;2023-02-11T01:38:42;81.80;;;30.33;;
38591;SDS011;24356;48.460;11.450;2023-02-11T01:41:11;81.35;;;29.83;;
38591;SDS011;24356;48.460;11.450;2023-02-11T01:43:40;81.85;;;29.95;;
38591;SDS011;24356;48.460;11.450;2023-02-11T01:49:09;74.80;;;26.50;;
38591;SDS011;24356;48.460;11.450;2023-02-11T01:51:50;78.30;;;27.80;;
38591;SDS011;24356;48.460;11.450;2023-02-11T01:54:21;79.68;;;27.75;;
38591;SDS011;24356;48.460;11.450;2023-02-11T01:57:09;69.13;;;26.27;;
38591;SDS011;24356;48.460;11.450;2023-02-11T02:03:04;79.22;;;28.77;;
38591;SDS011;24356;48.460;11.450;2023-02-11T02:08:33;76.10;;;28.23;;
38591;SDS011;24356;48.460;11.450;2023-02-11T02:11:06;80.40;;;28.33;;
38591;SDS011;24356;48.460;11.450;2023-02-11T02:13:32;82.68;;;28.90;;
38591;SDS011;24356;48.460;11.450;2023-02-11T02:16:03;77.82;;;28.17;;
38591;SDS011;24356;48.460;11.450;2023-02-11T02:24:15;71.53;;;26.45;;
38591;SDS011;24356;48.460;11.450;2023-02-11T02:35:05;64.43;;;25.50;;
38591;SDS011;24356;48.460;11.450;2023-02-11T02:37:50;66.30;;;25.02;;
38591;SDS011;24356;48.460;11.450;2023-02-11T02:40:31;67.10;;;26.35;;
38591;SDS011;24356;48.460;11.450;2023-02-11T02:43:02;74.15;;;25.35;;
38591;SDS011;24356;48.460;11.450;2023-02-11T02:45:28;65.80;;;25.58;;
38591;SDS011;24356;48.460;11.450;2023-02-11T02:47:54;60.03;;;23.67;;
38591;SDS011;24356;48.460;11.450;2023-02-11T02:50:22;65.47;;;25.35;;
38591;SDS011;24356;48.460;11.450;2023-02-11T02:58:41;67.88;;;25.27;;
38591;SDS011;24356;48.460;11.450;2023-02-11T03:01:18;70.13;;;25.83;;
38591;SDS011;24356;48.460;11.450;2023-02-11T03:09:39;64.60;;;24.45;;
38591;SDS011;24356;48.460;11.450;2023-02-11T03:12:31;64.22;;;23.58;;
38591;SDS011;24356;48.460;11.450;2023-02-11T03:14:58;66.03;;;24.27;;
38591;SDS011;24356;48.460;11.450;2023-02-11T03:17:27;59.85;;;24.08;;
38591;SDS011;24356;48.460;11.450;2023-02-11T03:19:55;67.47;;;25.00;;
38591;SDS011;24356;48.460;11.450;2023-02-11T03:22:26;70.75;;;24.92;;
38591;SDS011;24356;48.460;11.450;2023-02-11T03:25:01;65.72;;;23.58;;
38591;SDS011;24356;48.460;11.450;2023-02-11T03:32:53;69.95;;;25.73;;
38591;SDS011;24356;48.460;11.450;2023-02-11T03:35:30;65.50;;;25.42;;
38591;SDS011;24356;48.460;11.450;2023-02-11T03:38:04;69.10;;;26.35;;
38591;SDS011;24356;48.460;11.450;2023-02-11T03:40:34;72.18;;;25.45;;
38591;SDS011;24356;48.460;11.450;2023-02-11T03:43:04;76.32;;;26.45;;
38591;SDS011;24356;48.460;11.450;2023-02-11T03:45:34;65.13;;;25.75;;
38591;SDS011;24356;48.460;11.450;2023-02-11T03:48:06;70.45;;;27.13;;
38591;SDS011;24356;48.460;11.450;2023-02-11T03:50:38;73.78;;;26.70;;
38591;SDS011;24356;48.460;11.450;2023-02-11T03:53:05;65.13;;;24.92;;
38591;SDS011;24356;48.460;11.450;2023-02-11T03:55:34;69.97;;;25.98;;
38591;SDS011;24356;48.460;11.450;2023-02-11T03:58:02;68.43;;;25.90;;
38591;SDS011;24356;48.460;11.450;2023-02-11T04:00:29;68.65;;;28.08;;
38591;SDS011;24356;48.460;11.450;2023-02-11T04:03:00;59.80;;;23.83;;
38591;SDS011;24356;48.460;11.450;2023-02-11T04:05:26;62.85;;;24.83;;
38591;SDS011;24356;48.460;11.450;2023-02-11T04:07:51;62.28;;;23.48;;
38591;SDS011;24356;48.460;11.450;2023-02-11T04:10:17;66.97;;;25.58;;
38591;SDS011;24356;48.460;11.450;2023-02-11T04:12:43;63.72;;;24.33;;
38591;SDS011;24356;48.460;11.450;2023-02-11T04:15:08;60.33;;;24.73;;
38591;SDS011;24356;48.460;11.450;2023-02-11T04:17:34;61.15;;;24.23;;
38591;SDS011;24356;48.460;11.450;2023-02-11T04:19:59;60.67;;;23.58;;
38591;SDS011;24356;48.460;11.450;2023-02-11T04:22:25;62.85;;;24.10;;
38591;SDS011;24356;48.460;11.450;2023-02-11T04:24:51;59.58;;;23.08;;
38591;SDS011;24356;48.460;11.450;2023-02-11T04:27:16;58.10;;;22.80;;
38591;SDS011;24356;48.460;11.450;2023-02-11T04:29:42;62.25;;;25.10;;
38591;SDS011;24356;48.460;11.450;2023-02-11T04:32:08;63.90;;;24.98;;
38591;SDS011;24356;48.460;11.450;2023-02-11T04:34:34;66.72;;;25.10;;
38591;SDS011;24356;48.460;11.450;2023-02-11T04:37:00;63.83;;;24.48;;
38591;SDS011;24356;48.460;11.450;2023-02-11T04:39:26;57.30;;;23.92;;
38591;SDS011;24356;48.460;11.450;2023-02-11T04:41:51;70.63;;;25.15;;
38591;SDS011;24356;48.460;11.450;2023-02-11T04:44:17;66.22;;;25.25;;
38591;SDS011;24356;48.460;11.450;2023-02-11T04:46:42;66.70;;;26.88;;
38591;SDS011;24356;48.460;11.450;2023-02-11T04:49:10;78.82;;;28.90;;
38591;SDS011;24356;48.460;11.450;2023-02-11T04:51:37;87.55;;;30.27;;
38591;SDS011;24356;48.460;11.450;2023-02-11T04:54:03;82.47;;;29.77;;
38591;SDS011;24356;48.460;11.450;2023-02-11T04:56:29;84.82;;;32.17;;
38591;SDS011;24356;48.460;11.450;2023-02-11T04:58:54;83.90;;;31.20;;
38591;SDS011;24356;48.460;11.450;2023-02-11T05:01:20;82.35;;;31.90;;
38591;SDS011;24356;48.460;11.450;2023-02-11T05:03:45;86.30;;;31.55;;
38591;SDS011;24356;48.460;11.450;2023-02-11T05:06:11;84.50;;;32.35;;
38591;SDS011;24356;48.460;11.450;2023-02-11T05:08:36;102.72;;;35.65;;
38591;SDS011;24356;48.460;11.450;2023-02-11T05:11:02;95.18;;;35.22;;
38591;SDS011;24356;48.460;11.450;2023-02-11T05:13:28;91.53;;;32.83;;
38591;SDS011;24356;48.460;11.450;2023-02-11T05:15:54;98.03;;;34.45;;
38591;SDS011;24356;48.460;11.450;2023-02-11T05:18:20;100.07;;;33.33;;
38591;SDS011;24356;48.460;11.450;2023-02-11T05:20:46;91.75;;;34.42;;
38591;SDS011;24356;48.460;11.450;2023-02-11T05:23:11;93.13;;;34.08;;
38591;SDS011;24356;48.460;11.450;2023-02-11T05:25:37;95.90;;;33.22;;
38591;SDS011;24356;48.460;11.450;2023-02-11T05:28:03;98.13;;;34.70;;
38591;SDS011;24356;48.460;11.450;2023-02-11T05:30:29;98.68;;;34.05;;
38591;SDS011;24356;48.460;11.450;2023-02-11T05:32:55;89.88;;;33.65;;
38591;SDS011;24356;48.460;11.450;2023-02-11T05:35:21;88.15;;;32.88;;
38591;SDS011;24356;48.460;11.450;2023-02-11T05:37:47;85.25;;;32.58;;
38591;SDS011;24356;48.460;11.450;2023-02-11T05:40:12;88.05;;;33.20;;
38591;SDS011;24356;48.460;11.450;2023-02-11T05:42:38;80.47;;;30.70;;
38591;SDS011;24356;48.460;11.450;2023-02-11T05:45:04;85.78;;;32.47;;
38591;SDS011;24356;48.460;11.450;2023-02-11T05:47:29;78.22;;;30.90;;
38591;SDS011;24356;48.460;11.450;2023-02-11T05:49:55;78.40;;;30.40;;
38591;SDS011;24356;48.460;11.450;2023-02-11T05:52:21;78.93;;;30.10;;
38591;SDS011;24356;48.460;11.450;2023-02-11T05:54:47;74.05;;;29.38;;
38591;SDS011;24356;48.460;11.450;2023-02-11T05:57:13;77.10;;;28.98;;
38591;SDS011;24356;48.460;11.450;2023-02-11T05:59:39;78.68;;;30.02;;
38591;SDS011;24356;48.460;11.450;2023-02-11T06:02:05;80.60;;;29.80;;
38591;SDS011;24356;48.460;11.450;2023-02-11T06:04:35;81.88;;;30.23;;
38591;SDS011;24356;48.460;11.450;2023-02-11T06:07:01;75.43;;;28.92;;
38591;SDS011;24356;48.460;11.450;2023-02-11T06:09:27;82.63;;;30.85;;
38591;SDS011;24356;48.460;11.450;2023-02-11T06:11:53;72.60;;;28.75;;
38591;SDS011;24356;48.460;11.450;2023-02-11T06:14:18;78.22;;;29.25;;
38591;SDS011;24356;48.460;11.450;2023-02-11T06:16:44;86.10;;;31.00;;
38591;SDS011;24356;48.460;11.450;2023-02-11T06:19:10;79.90;;;31.10;;
38591;SDS011;24356;48.460;11.450;2023-02-11T06:21:36;75.47;;;30.02;;
38591;SDS011;24356;48.460;11.450;2023-02-11T06:24:02;69.82;;;28.10;;
38591;SDS011;24356;48.460;11.450;2023-02-11T06:26:29;68.47;;;27.42;;
38591;SDS011;24356;48.460;11.450;2023-02-11T06:28:55;70.30;;;27.30;;
38591;SDS011;24356;48.460;11.450;2023-02-11T06:31:20;71.90;;;27.27;;
38591;SDS011;24356;48.460;11.450;2023-02-11T06:33:46;67.40;;;26.45;;
38591;SDS011;24356;48.460;11.450;2023-02-11T06:36:13;70.00;;;27.80;;
38591;SDS011;24356;48.460;11.450;2023-02-11T06:38:41;66.72;;;27.20;;
38591;SDS011;24356;48.460;11.450;2023-02-11T06:41:13;72.38;;;27.38;;
38591;SDS011;24356;48.460;11.450;2023-02-11T06:43:40;75.15;;;27.05;;
38591;SDS011;24356;48.460;11.450;2023-02-11T06:46:06;77.45;;;27.60;;
38591;SDS011;24356;48.460;11.450;2023-02-11T06:48:32;72.60;;;27.80;;
38591;SDS011;24356;48.460;11.450;2023-02-11T06:51:02;72.93;;;28.33;;
38591;SDS011;24356;48.460;11.450;2023-02-11T06:53:30;76.65;;;31.73;;
38591;SDS011;24356;48.460;11.450;2023-02-11T06:56:02;71.32;;;28.10;;
38591;SDS011;24356;48.460;11.450;2023-02-11T06:58:30;68.32;;;27.80;;
38591;SDS011;24356;48.460;11.450;2023-02-11T07:00:56;70.60;;;27.05;;
38591;SDS011;24356;48.460;11.450;2023-02-11T07:03:21;66.72;;;26.67;;
38591;SDS011;24356;48.460;11.450;2023-02-11T07:05:47;68.60;;;27.02;;
38591;SDS011;24356;48.460;11.450;2023-02-11T07:08:12;66.45;;;26.10;;
38591;SDS011;24356;48.460;11.450;2023-02-11T07:10:38;65.53;;;26.35;;
38591;SDS011;24356;48.460;11.450;2023-02-11T07:13:04;60.75;;;25.10;;
38591;SDS011;24356;48.460;11.450;2023-02-11T07:15:29;66.78;;;25.10;;
38591;SDS011;24356;48.460;11.450;2023-02-11T07:17:55;62.83;;;25.40;;
38591;SDS011;24356;48.460;11.450;2023-02-11T07:20:20;62.63;;;24.73;;
38591;SDS011;24356;48.460;11.450;2023-02-11T07:22:46;58.67;;;25.20;;
38591;SDS011;24356;48.460;11.450;2023-02-11T07:25:11;60.35;;;23.42;;
38591;SDS011;24356;48.460;11.450;2023-02-11T07:27:37;61.17;;;24.50;;
38591;SDS011;24356;48.460;11.450;2023-02-11T07:30:03;63.22;;;23.70;;
38591;SDS011;24356;48.460;11.450;2023-02-11T07:32:29;67.15;;;25.35;;
38591;SDS011;24356;48.460;11.450;2023-02-11T07:34:54;61.13;;;25.20;;
38591;SDS011;24356;48.460;11.450;2023-02-11T07:37:20;56.53;;;22.83;;
38591;SDS011;24356;48.460;11.450;2023-02-11T07:39:45;54.45;;;23.77;;
38591;SDS011;24356;48.460;11.450;2023-02-11T07:42:11;66.25;;;23.77;;
38591;SDS011;24356;48.460;11.450;2023-02-11T07:44:37;58.47;;;23.15;;
38591;SDS011;24356;48.460;11.450;2023-02-11T07:47:02;57.42;;;24.58;;
38591;SDS011;24356;48.460;11.450;2023-02-11T07:49:28;59.95;;;23.92;;
38591;SDS011;24356;48.460;11.450;2023-02-11T07:51:53;58.53;;;24.10;;
38591;SDS011;24356;48.460;11.450;2023-02-11T07:54:19;61.90;;;24.48;;
38591;SDS011;24356;48.460;11.450;2023-02-11T07:56:45;56.75;;;23.60;;
38591;SDS011;24356;48.460;11.450;2023-02-11T07:59:11;52.50;;;23.13;;
38591;SDS011;24356;48.460;11.450;2023-02-11T08:01:36;56.42;;;23.92;;
38591;SDS011;24356;48.460;11.450;2023-02-11T08:04:02;58.20;;;23.73;;
38591;SDS011;24356;48.460;11.450;2023-02-11T08:06:29;51.20;;;22.25;;
38591;SDS011;24356;48.460;11.450;2023-02-11T08:08:56;57.00;;;22.90;;
38591;SDS011;24356;48.460;11.450;2023-02-11T08:11:23;52.22;;;22.48;;
38591;SDS011;24356;48.460;11.450;2023-02-11T08:13:51;53.55;;;23.63;;
38591;SDS011;24356;48.460;11.450;2023-02-11T08:16:18;50.92;;;22.00;;
38591;SDS011;24356;48.460;11.450;2023-02-11T08:18:44;54.83;;;22.17;;
38591;SDS011;24356;48.460;11.450;2023-02-11T08:21:10;53.05;;;22.50;;
38591;SDS011;24356;48.460;11.450;2023-02-11T08:23:36;49.88;;;21.77;;
38591;SDS011;24356;48.460;11.450;2023-02-11T08:26:03;50.47;;;22.95;;
38591;SDS011;24356;48.460;11.450;2023-02-11T08:28:30;55.38;;;22.38;;
38591;SDS011;24356;48.460;11.450;2023-02-11T08:31:03;46.65;;;21.15;;
38591;SDS011;24356;48.460;11.450;2023-02-11T08:35:58;44.38;;;19.15;;
38591;SDS011;24356;48.460;11.450;2023-02-11T08:38:24;51.22;;;21.52;;
38591;SDS011;24356;48.460;11.450;2023-02-11T08:40:49;49.03;;;21.17;;
38591;SDS011;24356;48.460;11.450;2023-02-11T08:43:15;46.63;;;19.95;;
38591;SDS011;24356;48.460;11.450;2023-02-11T08:45:41;44.15;;;19.08;;
38591;SDS011;24356;48.460;11.450;2023-02-11T08:48:06;44.83;;;19.58;;
38591;SDS011;24356;48.460;11.450;2023-02-11T08:50:32;41.92;;;19.10;;
38591;SDS011;24356;48.460;11.450;2023-02-11T08:52:58;45.67;;;18.50;;
38591;SDS011;24356;48.460;11.450;2023-02-11T08:55:23;40.72;;;18.00;;
38591;SDS011;24356;48.460;11.450;2023-02-11T08:57:49;46.08;;;18.10;;
38591;SDS011;24356;48.460;11.450;2023-02-11T09:00:15;40.70;;;16.10;;
38591;SDS011;24356;48.460;11.450;2023-02-11T09:02:42;38.80;;;18.15;;
38591;SDS011;24356;48.460;11.450;2023-02-11T09:05:08;41.47;;;17.40;;
38591;SDS011;24356;48.460;11.450;2023-02-11T09:07:33;34.85;;;15.57;;
38591;SDS011;24356;48.460;11.450;2023-02-11T09:09:59;37.65;;;16.30;;
38591;SDS011;24356;48.460;11.450;2023-02-11T09:12:24;31.98;;;15.20;;
38591;SDS011;24356;48.460;11.450;2023-02-11T09:14:50;34.88;;;14.95;;
38591;SDS011;24356;48.460;11.450;2023-02-11T09:17:15;38.33;;;15.30;;
38591;SDS011;24356;48.460;11.450;2023-02-11T09:19:41;37.13;;;15.15;;
38591;SDS011;24356;48.460;11.450;2023-02-11T09:22:06;36.28;;;14.60;;
38591;SDS011;24356;48.460;11.450;2023-02-11T09:24:32;32.97;;;15.05;;
38591;SDS011;24356;48.460;11.450;2023-02-11T09:26:57;35.90;;;15.15;;
38591;SDS011;24356;48.460;11.450;2023-02-11T09:29:23;28.17;;;13.23;;
38591;SDS011;24356;48.460;11.450;2023-02-11T09:31:48;28.38;;;13.40;;
38591;SDS011;24356;48.460;11.450;2023-02-11T09:34:14;31.83;;;13.80;;
38591;SDS011;24356;48.460;11.450;2023-02-11T09:36:40;33.17;;;14.90;;
38591;SDS011;24356;48.460;11.450;2023-02-11T09:39:07;29.77;;;13.73;;
38591;SDS011;24356;48.460;11.450;2023-02-11T09:41:38;27.45;;;13.50;;
38591;SDS011;24356;48.460;11.450;2023-02-11T09:44:07;27.67;;;13.50;;
38591;SDS011;24356;48.460;11.450;2023-02-11T09:46:40;29.40;;;13.00;;
38591;SDS011;24356;48.460;11.450;2023-02-11T09:49:10;26.65;;;12.10;;
38591;SDS011;24356;48.460;11.450;2023-02-11T09:51:47;26.92;;;12.73;;
38591;SDS011;24356;48.460;11.450;2023-02-11T09:55:01;32.45;;;12.98;;
38591;SDS011;24356;48.460;11.450;2023-02-11T09:57:13;24.15;;;12.02;;
38591;SDS011;24356;48.460;11.450;2023-02-11T09:59:39;28.38;;;12.60;;
38591;SDS011;24356;48.460;11.450;2023-02-11T10:02:52;33.78;;;13.95;;
38591;SDS011;24356;48.460;11.450;2023-02-11T10:08:01;25.45;;;11.90;;
38591;SDS011;24356;48.460;11.450;2023-02-11T10:10:45;33.20;;;14.02;;
38591;SDS011;24356;48.460;11.450;2023-02-11T10:19:08;24.58;;;10.70;;
38591;SDS011;24356;48.460;11.450;2023-02-11T10:24:28;23.33;;;10.85;;
38591;SDS011;24356;48.460;11.450;2023-02-11T10:26:55;33.65;;;11.68;;
38591;SDS011;24356;48.460;11.450;2023-02-11T10:31:57;23.27;;;10.82;;
38591;SDS011;24356;48.460;11.450;2023-02-11T10:34:24;28.33;;;11.75;;
38591;SDS011;24356;48.460;11.450;2023-02-11T10:36:50;23.90;;;10.55;;
38591;SDS011;24356;48.460;11.450;2023-02-11T10:39:16;26.80;;;11.07;;
38591;SDS011;24356;48.460;11.450;2023-02-11T10:41:44;25.80;;;11.13;;
38591;SDS011;24356;48.460;11.450;2023-02-11T10:44:48;29.73;;;11.25;;
38591;SDS011;24356;48.460;11.450;2023-02-11T10:47:17;26.65;;;10.07;;
38591;SDS011;24356;48.460;11.450;2023-02-11T10:49:46;21.10;;;9.48;;
38591;SDS011;24356;48.460;11.450;2023-02-11T10:52:23;21.35;;;9.85;;
38591;SDS011;24356;48.460;11.450;2023-02-11T10:54:57;17.40;;;8.93;;
38591;SDS011;24356;48.460;11.450;2023-02-11T10:57:25;18.70;;;8.70;;
38591;SDS011;24356;48.460;11.450;2023-02-11T10:59:55;21.50;;;9.27;;
38591;SDS011;24356;48.460;11.450;2023-02-11T11:02:31;21.00;;;9.13;;
38591;SDS011;24356;48.460;11.450;2023-02-11T11:05:00;18.50;;;8.93;;
38591;SDS011;24356;48.460;11.450;2023-02-11T11:07:33;21.27;;;9.57;;
38591;SDS011;24356;48.460;11.450;2023-02-11T11:10:00;19.65;;;9.45;;
38591;SDS011;24356;48.460;11.450;2023-02-11T11:17:37;16.48;;;7.97;;
38591;SDS011;24356;48.460;11.450;2023-02-11T11:25:45;21.92;;;11.20;;
38591;SDS011;24356;48.460;11.450;2023-02-11T11:28:24;18.92;;;9.60;;
38591;SDS011;24356;48.460;11.450;2023-02-11T11:30:52;17.13;;;9.25;;
38591;SDS011;24356;48.460;11.450;2023-02-11T11:33:22;17.55;;;8.43;;
38591;SDS011;24356;48.460;11.450;2023-02-11T11:35:54;18.55;;;9.00;;
38591;SDS011;24356;48.460;11.450;2023-02-11T11:38:23;15.00;;;7.90;;
38591;SDS011;24356;48.460;11.450;2023-02-11T11:41:11;15.48;;;8.60;;
38591;SDS011;24356;48.460;11.450;2023-02-11T11:43:38;18.20;;;9.05;;
38591;SDS011;24356;48.460;11.450;2023-02-11T11:46:04;19.55;;;8.77;;
38591;SDS011;24356;48.460;11.450;2023-02-11T11:48:37;16.98;;;8.18;;
38591;SDS011;24356;48.460;11.450;2023-02-11T11:51:05;18.10;;;8.18;;
38591;SDS011;24356;48.460;11.450;2023-02-11T11:56:08;18.23;;;8.68;;
38591;SDS011;24356;48.460;11.450;2023-02-11T11:58:35;15.02;;;8.55;;
38591;SDS011;24356;48.460;11.450;2023-02-11T12:01:08;18.70;;;8.77;;
38591;SDS011;24356;48.460;11.450;2023-02-11T12:09:53;15.50;;;7.57;;
38591;SDS011;24356;48.460;11.450;2023-02-11T12:12:32;14.85;;;7.65;;
38591;SDS011;24356;48.460;11.450;2023-02-11T12:15:05;17.08;;;8.38;;
38591;SDS011;24356;48.460;11.450;2023-02-11T12:18:15;14.88;;;7.90;;
38591;SDS011;24356;48.460;11.450;2023-02-11T12:29:39;21.48;;;10.35;;
38591;SDS011;24356;48.460;11.450;2023-02-11T12:32:25;15.52;;;7.88;;
38591;SDS011;24356;48.460;11.450;2023-02-11T12:40:41;17.08;;;8.63;;
38591;SDS011;24356;48.460;11.450;2023-02-11T12:48:43;18.67;;;9.27;;
38591;SDS011;24356;48.460;11.450;2023-02-11T12:56:58;15.73;;;8.80;;
38591;SDS011;24356;48.460;11.450;2023-02-11T12:59:32;16.75;;;8.75;;
38591;SDS011;24356;48.460;11.450;2023-02-11T13:05:00;17.92;;;9.18;;
38591;SDS011;24356;48.460;11.450;2023-02-11T13:07:44;17.65;;;8.50;;
38591;SDS011;24356;48.460;11.450;2023-02-11T13:10:23;15.25;;;8.45;;
38591;SDS011;24356;48.460;11.450;2023-02-11T13:12:49;18.15;;;9.02;;
38591;SDS011;24356;48.460;11.450;2023-02-11T13:15:37;19.85;;;9.20;;
38591;SDS011;24356;48.460;11.450;2023-02-11T13:26:11;28.27;;;10.07;;
38591;SDS011;24356;48.460;11.450;2023-02-11T13:29:18;20.08;;;10.27;;
38591;SDS011;24356;48.460;11.450;2023-02-11T13:31:56;24.65;;;11.68;;
38591;SDS011;24356;48.460;11.450;2023-02-11T13:37:25;27.42;;;11.13;;
38591;SDS011;24356;48.460;11.450;2023-02-11T13:42:55;24.17;;;12.25;;
38591;SDS011;24356;48.460;11.450;2023-02-11T13:48:01;47.28;;;16.67;;
38591;SDS011;24356;48.460;11.450;2023-02-11T13:50:31;27.75;;;12.43;;
38591;SDS011;24356;48.460;11.450;2023-02-11T13:53:01;32.08;;;13.02;;
38591;SDS011;24356;48.460;11.450;2023-02-11T13:55:28;31.15;;;11.95;;
38591;SDS011;24356;48.460;11.450;2023-02-11T14:08:57;24.67;;;11.00;;
38591;SDS011;24356;48.460;11.450;2023-02-11T14:14:18;19.60;;;10.63;;
38591;SDS011;24356;48.460;11.450;2023-02-11T14:19:30;22.27;;;10.85;;
38591;SDS011;24356;48.460;11.450;2023-02-11T14:22:26;22.38;;;10.90;;
38591;SDS011;24356;48.460;11.450;2023-02-11T14:24:59;16.90;;;9.55;;
38591;SDS011;24356;48.460;11.450;2023-02-11T14:27:27;19.65;;;9.73;;
38591;SDS011;24356;48.460;11.450;2023-02-11T14:40:57;19.33;;;9.27;;
38591;SDS011;24356;48.460;11.450;2023-02-11T14:43:52;17.58;;;10.02;;
38591;SDS011;24356;48.460;11.450;2023-02-11T14:46:28;26.48;;;10.50;;
38591;SDS011;24356;48.460;11.450;2023-02-11T14:49:00;21.35;;;9.68;;
38591;SDS011;24356;48.460;11.450;2023-02-11T14:51:28;18.38;;;9.82;;
38591;SDS011;24356;48.460;11.450;2023-02-11T14:54:02;17.73;;;9.88;;
38591;SDS011;24356;48.460;11.450;2023-02-11T14:56:39;21.48;;;10.68;;
38591;SDS011;24356;48.460;11.450;2023-02-11T14:59:18;19.05;;;9.75;;
38591;SDS011;24356;48.460;11.450;2023-02-11T15:01:49;22.13;;;10.43;;
38591;SDS011;24356;48.460;11.450;2023-02-11T15:06:47;18.52;;;10.70;;
38591;SDS011;24356;48.460;11.450;2023-02-11T15:09:20;21.92;;;10.88;;
38591;SDS011;24356;48.460;11.450;2023-02-11T15:11:51;21.02;;;10.70;;
38591;SDS011;24356;48.460;11.450;2023-02-11T15:14:21;17.92;;;10.27;;
38591;SDS011;24356;48.460;11.450;2023-02-11T15:17:01;18.60;;;10.13;;
38591;SDS011;24356;48.460;11.450;2023-02-11T15:19:30;19.45;;;10.32;;
38591;SDS011;24356;48.460;11.450;2023-02-11T15:22:00;22.40;;;11.02;;
38591;SDS011;24356;48.460;11.450;2023-02-11T15:24:30;21.73;;;9.70;;
38591;SDS011;24356;48.460;11.450;2023-02-11T15:27:01;18.92;;;10.43;;
38591;SDS011;24356;48.460;11.450;2023-02-11T15:29:34;17.65;;;9.65;;
38591;SDS011;24356;48.460;11.450;2023-02-11T15:32:04;22.83;;;10.07;;
38591;SDS011;24356;48.460;11.450;2023-02-11T15:34:37;20.27;;;10.13;;
38591;SDS011;24356;48.460;11.450;2023-02-11T15:37:03;22.10;;;11.20;;
38591;SDS011;24356;48.460;11.450;2023-02-11T15:39:30;20.95;;;10.25;;
38591;SDS011;24356;48.460;11.450;2023-02-11T15:44:46;25.20;;;11.27;;
38591;SDS011;24356;48.460;11.450;2023-02-11T15:47:18;21.77;;;11.52;;
38591;SDS011;24356;48.460;11.450;2023-02-11T15:49:48;27.30;;;12.98;;
38591;SDS011;24356;48.460;11.450;2023-02-11T15:52:20;29.48;;;13.00;;
38591;SDS011;24356;48.460;11.450;2023-02-11T15:54:50;27.65;;;12.30;;
38591;SDS011;24356;48.460;11.450;2023-02-11T15:57:19;21.08;;;11.38;;
38591;SDS011;24356;48.460;11.450;2023-02-11T15:59:51;23.27;;;11.77;;
38591;SDS011;24356;48.460;11.450;2023-02-11T16:02:19;24.90;;;11.80;;
38591;SDS011;24356;48.460;11.450;2023-02-11T16:04:57;22.90;;;11.60;;
38591;SDS011;24356;48.460;11.450;2023-02-11T16:10:35;25.42;;;12.23;;
38591;SDS011;24356;48.460;11.450;2023-02-11T16:18:01;48.15;;;21.42;;
38591;SDS011;24356;48.460;11.450;2023-02-11T16:20:36;38.88;;;15.98;;
38591;SDS011;24356;48.460;11.450;2023-02-11T16:23:02;27.25;;;12.68;;
38591;SDS011;24356;48.460;11.450;2023-02-11T16:25:28;33.40;;;15.15;;
38591;SDS011;24356;48.460;11.450;2023-02-11T16:27:54;33.78;;;16.10;;
38591;SDS011;24356;48.460;11.450;2023-02-11T16:32:48;35.25;;;15.55;;
38591;SDS011;24356;48.460;11.450;2023-02-11T16:35:13;30.88;;;15.25;;
38591;SDS011;24356;48.460;11.450;2023-02-11T16:37:39;34.22;;;14.85;;
38591;SDS011;24356;48.460;11.450;2023-02-11T16:40:05;29.02;;;14.13;;
38591;SDS011;24356;48.460;11.450;2023-02-11T16:42:31;29.40;;;14.23;;
38591;SDS011;24356;48.460;11.450;2023-02-11T16:44:56;27.55;;;13.95;;
38591;SDS011;24356;48.460;11.450;2023-02-11T16:47:24;25.92;;;14.00;;
38591;SDS011;24356;48.460;11.450;2023-02-11T16:49:52;29.20;;;13.57;;
38591;SDS011;24356;48.460;11.450;2023-02-11T16:52:19;32.72;;;13.70;;
38591;SDS011;24356;48.460;11.450;2023-02-11T16:54:45;30.48;;;14.27;;
38591;SDS011;24356;48.460;11.450;2023-02-11T16:57:21;33.35;;;13.93;;
38591;SDS011;24356;48.460;11.450;2023-02-11T16:59:48;31.13;;;14.65;;
38591;SDS011;24356;48.460;11.450;2023-02-11T17:02:14;37.15;;;17.20;;
38591;SDS011;24356;48.460;11.450;2023-02-11T17:04:51;52.53;;;21.73;;
38591;SDS011;24356;48.460;11.450;2023-02-11T17:07:22;46.17;;;22.40;;